sensor_id;sensor_type;location;lat;lon;timestamp;pressure;altitude;pressure_sealevel;temperature;humidity
46015;BME280;36844;51.898;-0.874;2022-12-24T00:01:00;99397.63;;;18.92;
46015;BME280;36844;51.898;-0.874;2022-12-24T00:03:26;99391.16;;;18.89;
46015;BME280;36844;51.898;-0.874;2022-12-24T00:05:51;99390.06;;;18.87;
46015;BME280;36844;51.898;-0.874;2022-12-24T00:08:16;99398.16;;;18.87;
46015;BME280;36844;51.898;-0.874;2022-12-24T00:10:42;99393.19;;;18.85;
46015;BME280;36844;51.898;-0.874;2022-12-24T00:13:08;99403.66;;;18.83;
46015;BME280;36844;51.898;-0.874;2022-12-24T00:15:33;99406.03;;;18.81;
46015;BME280;36844;51.898;-0.874;2022-12-24T00:17:58;99406.88;;;18.78;
46015;BME280;36844;51.898;-0.874;2022-12-24T00:20:23;99406.88;;;18.78;
46015;BME280;36844;51.898;-0.874;2022-12-24T00:22:49;99409.22;;;18.76;
46015;BME280;36844;51.898;-0.874;2022-12-24T00:25:14;99405.47;;;18.73;
46015;BME280;36844;51.898;-0.874;2022-12-24T00:27:39;99403.16;;;18.72;
46015;BME280;36844;51.898;-0.874;2022-12-24T00:30:05;99401.66;;;18.71;
46015;BME280;36844;51.898;-0.874;2022-12-24T00:32:30;99404.81;;;18.69;
46015;BME280;36844;51.898;-0.874;2022-12-24T00:34:55;99414.47;;;18.67;
46015;BME280;36844;51.898;-0.874;2022-12-24T00:37:21;99417.63;;;18.65;
46015;BME280;36844;51.898;-0.874;2022-12-24T00:39:46;99423.41;;;18.64;
46015;BME280;36844;51.898;-0.874;2022-12-24T00:42:11;99421.91;;;18.63;
46015;BME280;36844;51.898;-0.874;2022-12-24T00:44:36;99426.97;;;18.61;
46015;BME280;36844;51.898;-0.874;2022-12-24T00:47:02;99422.00;;;18.59;
46015;BME280;36844;51.898;-0.874;2022-12-24T00:49:27;99430.53;;;18.58;
46015;BME280;36844;51.898;-0.874;2022-12-24T00:51:52;99412.81;;;18.57;
46015;BME280;36844;51.898;-0.874;2022-12-24T00:54:17;99426.72;;;18.55;
46015;BME280;36844;51.898;-0.874;2022-12-24T00:56:42;99422.94;;;18.53;
46015;BME280;36844;51.898;-0.874;2022-12-24T00:59:08;99427.59;;;18.52;
46015;BME280;36844;51.898;-0.874;2022-12-24T01:01:33;99424.53;;;18.50;
46015;BME280;36844;51.898;-0.874;2022-12-24T01:03:59;99424.22;;;18.48;
46015;BME280;36844;51.898;-0.874;2022-12-24T01:06:43;99436.16;;;18.47;
46015;BME280;36844;51.898;-0.874;2022-12-24T01:09:08;99443.94;;;18.45;
46015;BME280;36844;51.898;-0.874;2022-12-24T01:11:34;99447.03;;;18.44;
46015;BME280;36844;51.898;-0.874;2022-12-24T01:13:59;99450.16;;;18.42;
46015;BME280;36844;51.898;-0.874;2022-12-24T01:16:24;99457.13;;;18.40;
46015;BME280;36844;51.898;-0.874;2022-12-24T01:18:49;99458.34;;;18.39;
46015;BME280;36844;51.898;-0.874;2022-12-24T01:21:15;99457.59;;;18.38;
46015;BME280;36844;51.898;-0.874;2022-12-24T01:23:40;99455.31;;;18.37;
46015;BME280;36844;51.898;-0.874;2022-12-24T01:26:05;99458.41;;;18.35;
46015;BME280;36844;51.898;-0.874;2022-12-24T01:28:31;99463.06;;;18.35;
46015;BME280;36844;51.898;-0.874;2022-12-24T01:30:56;99460.78;;;18.33;
46015;BME280;36844;51.898;-0.874;2022-12-24T01:33:21;99470.03;;;18.32;
46015;BME280;36844;51.898;-0.874;2022-12-24T01:35:46;99468.94;;;18.30;
46015;BME280;36844;51.898;-0.874;2022-12-24T01:38:12;99478.97;;;18.29;
46015;BME280;36844;51.898;-0.874;2022-12-24T01:40:38;99480.91;;;18.29;
46015;BME280;36844;51.898;-0.874;2022-12-24T01:43:22;99477.88;;;18.27;
46015;BME280;36844;51.898;-0.874;2022-12-24T01:45:49;99472.91;;;18.25;
46015;BME280;36844;51.898;-0.874;2022-12-24T01:48:33;99479.47;;;18.24;
46015;BME280;36844;51.898;-0.874;2022-12-24T01:51:11;99473.75;;;18.22;
46015;BME280;36844;51.898;-0.874;2022-12-24T01:53:37;99483.75;;;18.22;
46015;BME280;36844;51.898;-0.874;2022-12-24T01:56:03;99483.44;;;18.20;
46015;BME280;36844;51.898;-0.874;2022-12-24T01:58:29;99476.53;;;18.19;
46015;BME280;36844;51.898;-0.874;2022-12-24T02:00:54;99478.47;;;18.18;
46015;BME280;36844;51.898;-0.874;2022-12-24T02:03:20;99476.19;;;18.17;
46015;BME280;36844;51.898;-0.874;2022-12-24T02:05:50;99490.84;;;18.16;
46015;BME280;36844;51.898;-0.874;2022-12-24T02:08:17;99495.47;;;18.15;
46015;BME280;36844;51.898;-0.874;2022-12-24T02:10:43;99494.72;;;18.15;
46015;BME280;36844;51.898;-0.874;2022-12-24T02:13:08;99489.00;;;18.13;
46015;BME280;36844;51.898;-0.874;2022-12-24T02:15:37;99498.25;;;18.12;
46015;BME280;36844;51.898;-0.874;2022-12-24T02:18:21;99492.09;;;18.11;
46015;BME280;36844;51.898;-0.874;2022-12-24T02:21:22;99488.31;;;18.09;
46015;BME280;36844;51.898;-0.874;2022-12-24T02:31:32;99486.09;;;18.04;
46015;BME280;36844;51.898;-0.874;2022-12-24T02:34:04;99478.44;;;18.02;
46015;BME280;36844;51.898;-0.874;2022-12-24T02:36:34;99491.16;;;18.02;
46015;BME280;36844;51.898;-0.874;2022-12-24T02:39:03;99489.66;;;18.01;
46015;BME280;36844;51.898;-0.874;2022-12-24T02:41:29;99488.13;;;18.00;
46015;BME280;36844;51.898;-0.874;2022-12-24T02:44:15;99488.13;;;18.00;
46015;BME280;36844;51.898;-0.874;2022-12-24T02:46:41;99491.22;;;17.98;
46015;BME280;36844;51.898;-0.874;2022-12-24T02:49:07;99510.50;;;17.97;
46015;BME280;36844;51.898;-0.874;2022-12-24T02:51:32;99510.50;;;17.97;
46015;BME280;36844;51.898;-0.874;2022-12-24T02:53:57;99518.25;;;17.95;
46015;BME280;36844;51.898;-0.874;2022-12-24T02:58:53;99526.75;;;17.93;
46015;BME280;36844;51.898;-0.874;2022-12-24T03:07:10;99509.91;;;17.89;
46015;BME280;36844;51.898;-0.874;2022-12-24T03:12:43;99516.88;;;17.87;
46015;BME280;36844;51.898;-0.874;2022-12-24T03:15:07;99519.22;;;17.85;
46015;BME280;36844;51.898;-0.874;2022-12-24T03:17:33;99520.75;;;17.86;
46015;BME280;36844;51.898;-0.874;2022-12-24T03:20:00;99521.91;;;17.85;
46015;BME280;36844;51.898;-0.874;2022-12-24T03:22:25;99516.19;;;17.83;
46015;BME280;36844;51.898;-0.874;2022-12-24T03:24:51;99516.94;;;17.83;
46015;BME280;36844;51.898;-0.874;2022-12-24T03:27:16;99516.19;;;17.83;
46015;BME280;36844;51.898;-0.874;2022-12-24T03:29:42;99529.34;;;17.81;
46015;BME280;36844;51.898;-0.874;2022-12-24T03:32:08;99520.50;;;17.80;
46015;BME280;36844;51.898;-0.874;2022-12-24T03:34:33;99522.84;;;17.78;
46015;BME280;36844;51.898;-0.874;2022-12-24T03:36:59;99520.16;;;17.78;
46015;BME280;36844;51.898;-0.874;2022-12-24T03:39:24;99527.13;;;17.75;
46015;BME280;36844;51.898;-0.874;2022-12-24T03:41:49;99530.97;;;17.74;
46015;BME280;36844;51.898;-0.874;2022-12-24T03:44:14;99536.81;;;17.73;
46015;BME280;36844;51.898;-0.874;2022-12-24T03:46:39;99550.25;;;17.73;
46015;BME280;36844;51.898;-0.874;2022-12-24T03:49:05;99546.81;;;17.72;
46015;BME280;36844;51.898;-0.874;2022-12-24T03:51:30;99550.66;;;17.71;
46015;BME280;36844;51.898;-0.874;2022-12-24T03:53:57;99551.84;;;17.70;
46015;BME280;36844;51.898;-0.874;2022-12-24T03:56:22;99555.72;;;17.69;
46015;BME280;36844;51.898;-0.874;2022-12-24T03:58:48;99553.41;;;17.68;
46015;BME280;36844;51.898;-0.874;2022-12-24T04:01:13;99556.88;;;17.68;
46015;BME280;36844;51.898;-0.874;2022-12-24T04:03:38;99556.53;;;17.66;
46015;BME280;36844;51.898;-0.874;2022-12-24T04:06:07;99555.03;;;17.65;
46015;BME280;36844;51.898;-0.874;2022-12-24T04:08:34;99558.88;;;17.64;
46015;BME280;36844;51.898;-0.874;2022-12-24T04:10:59;99558.09;;;17.64;
46015;BME280;36844;51.898;-0.874;2022-12-24T04:13:24;99566.19;;;17.64;
46015;BME280;36844;51.898;-0.874;2022-12-24T04:15:59;99565.09;;;17.61;
46015;BME280;36844;51.898;-0.874;2022-12-24T04:18:25;99570.50;;;17.61;
46015;BME280;36844;51.898;-0.874;2022-12-24T04:20:51;99577.03;;;17.60;
46015;BME280;36844;51.898;-0.874;2022-12-24T04:23:16;99575.50;;;17.59;
46015;BME280;36844;51.898;-0.874;2022-12-24T04:25:41;99575.50;;;17.59;
46015;BME280;36844;51.898;-0.874;2022-12-24T04:28:07;99592.09;;;17.58;
46015;BME280;36844;51.898;-0.874;2022-12-24T04:30:32;99595.19;;;17.56;
46015;BME280;36844;51.898;-0.874;2022-12-24T04:32:57;99597.88;;;17.56;
46015;BME280;36844;51.898;-0.874;2022-12-24T04:35:22;99596.34;;;17.55;
46015;BME280;36844;51.898;-0.874;2022-12-24T04:37:47;99595.59;;;17.55;
46015;BME280;36844;51.898;-0.874;2022-12-24T04:40:13;99605.63;;;17.54;
46015;BME280;36844;51.898;-0.874;2022-12-24T04:42:38;99617.53;;;17.53;
46015;BME280;36844;51.898;-0.874;2022-12-24T04:45:03;99614.09;;;17.53;
46015;BME280;36844;51.898;-0.874;2022-12-24T04:47:29;99623.31;;;17.52;
46015;BME280;36844;51.898;-0.874;2022-12-24T04:49:54;99635.31;;;17.51;
46015;BME280;36844;51.898;-0.874;2022-12-24T04:52:19;99628.38;;;17.50;
46015;BME280;36844;51.898;-0.874;2022-12-24T04:54:44;99636.06;;;17.48;
46015;BME280;36844;51.898;-0.874;2022-12-24T04:57:10;99636.84;;;17.48;
46015;BME280;36844;51.898;-0.874;2022-12-24T04:59:35;99640.75;;;17.47;
46015;BME280;36844;51.898;-0.874;2022-12-24T05:02:00;99630.69;;;17.48;
46015;BME280;36844;51.898;-0.874;2022-12-24T05:04:25;99613.44;;;17.45;
46015;BME280;36844;51.898;-0.874;2022-12-24T05:06:50;99628.06;;;17.44;
46015;BME280;36844;51.898;-0.874;2022-12-24T05:09:16;99631.19;;;17.43;
46015;BME280;36844;51.898;-0.874;2022-12-24T05:11:41;99647.34;;;17.43;
46015;BME280;36844;51.898;-0.874;2022-12-24T05:14:06;99643.13;;;17.42;
46015;BME280;36844;51.898;-0.874;2022-12-24T05:16:31;99638.13;;;17.40;
46015;BME280;36844;51.898;-0.874;2022-12-24T05:18:56;99650.84;;;17.40;
46015;BME280;36844;51.898;-0.874;2022-12-24T05:21:22;99655.50;;;17.39;
46015;BME280;36844;51.898;-0.874;2022-12-24T05:23:48;99659.34;;;17.38;
46015;BME280;36844;51.898;-0.874;2022-12-24T05:26:36;99665.88;;;17.37;
46015;BME280;36844;51.898;-0.874;2022-12-24T05:29:04;99668.25;;;17.35;
46015;BME280;36844;51.898;-0.874;2022-12-24T05:31:30;99671.69;;;17.36;
46015;BME280;36844;51.898;-0.874;2022-12-24T05:33:57;99679.00;;;17.35;
46015;BME280;36844;51.898;-0.874;2022-12-24T05:36:22;99666.72;;;17.34;
46015;BME280;36844;51.898;-0.874;2022-12-24T05:38:48;99675.94;;;17.33;
46015;BME280;36844;51.898;-0.874;2022-12-24T05:41:14;99674.41;;;17.32;
46015;BME280;36844;51.898;-0.874;2022-12-24T05:43:39;99668.31;;;17.32;
46015;BME280;36844;51.898;-0.874;2022-12-24T05:46:06;99672.16;;;17.31;
46015;BME280;36844;51.898;-0.874;2022-12-24T05:48:31;99668.69;;;17.30;
46015;BME280;36844;51.898;-0.874;2022-12-24T05:50:57;99671.38;;;17.30;
46015;BME280;36844;51.898;-0.874;2022-12-24T05:53:22;99674.47;;;17.29;
46015;BME280;36844;51.898;-0.874;2022-12-24T05:55:47;99661.00;;;17.29;
46015;BME280;36844;51.898;-0.874;2022-12-24T05:58:13;99666.81;;;17.27;
46015;BME280;36844;51.898;-0.874;2022-12-24T06:00:38;99667.97;;;17.26;
46015;BME280;36844;51.898;-0.874;2022-12-24T06:03:03;99676.06;;;17.26;
46015;BME280;36844;51.898;-0.874;2022-12-24T06:05:28;99680.66;;;17.26;
46015;BME280;36844;51.898;-0.874;2022-12-24T06:07:53;99686.50;;;17.24;
46015;BME280;36844;51.898;-0.874;2022-12-24T06:10:21;99683.81;;;17.24;
46015;BME280;36844;51.898;-0.874;2022-12-24T06:12:46;99680.34;;;17.24;
46015;BME280;36844;51.898;-0.874;2022-12-24T06:15:11;99687.28;;;17.21;
46015;BME280;36844;51.898;-0.874;2022-12-24T06:17:36;99687.28;;;17.21;
46015;BME280;36844;51.898;-0.874;2022-12-24T06:20:02;99695.38;;;17.21;
46015;BME280;36844;51.898;-0.874;2022-12-24T06:22:27;99696.53;;;17.20;
46015;BME280;36844;51.898;-0.874;2022-12-24T06:24:52;99700.38;;;17.19;
46015;BME280;36844;51.898;-0.874;2022-12-24T06:27:18;99697.69;;;17.19;
46015;BME280;36844;51.898;-0.874;2022-12-24T06:29:43;99710.78;;;17.17;
46015;BME280;36844;51.898;-0.874;2022-12-24T06:32:08;99711.97;;;17.16;
46015;BME280;36844;51.898;-0.874;2022-12-24T06:34:33;99718.13;;;17.17;
46015;BME280;36844;51.898;-0.874;2022-12-24T06:36:59;99715.81;;;17.15;
46015;BME280;36844;51.898;-0.874;2022-12-24T06:39:24;99710.44;;;17.15;
46015;BME280;36844;51.898;-0.874;2022-12-24T06:41:49;99717.75;;;17.15;
46015;BME280;36844;51.898;-0.874;2022-12-24T06:44:14;99721.19;;;17.15;
46015;BME280;36844;51.898;-0.874;2022-12-24T06:46:40;99720.84;;;17.13;
46015;BME280;36844;51.898;-0.874;2022-12-24T06:49:05;99722.34;;;17.14;
46015;BME280;36844;51.898;-0.874;2022-12-24T06:51:30;99724.31;;;17.14;
46015;BME280;36844;51.898;-0.874;2022-12-24T06:53:55;99725.81;;;17.15;
46015;BME280;36844;51.898;-0.874;2022-12-24T06:56:20;99725.81;;;17.15;
46015;BME280;36844;51.898;-0.874;2022-12-24T06:58:46;99726.59;;;17.15;
46015;BME280;36844;51.898;-0.874;2022-12-24T07:01:12;99732.72;;;17.16;
46015;BME280;36844;51.898;-0.874;2022-12-24T07:03:38;99733.50;;;17.16;
46015;BME280;36844;51.898;-0.874;2022-12-24T07:06:03;99734.28;;;17.17;
46015;BME280;36844;51.898;-0.874;2022-12-24T07:08:29;99743.81;;;17.18;
46015;BME280;36844;51.898;-0.874;2022-12-24T07:10:57;99754.97;;;17.20;
46015;BME280;36844;51.898;-0.874;2022-12-24T07:13:23;99746.47;;;17.21;
46015;BME280;36844;51.898;-0.874;2022-12-24T07:15:55;99751.44;;;17.23;
46015;BME280;36844;51.898;-0.874;2022-12-24T07:18:20;99757.19;;;17.25;
46015;BME280;36844;51.898;-0.874;2022-12-24T07:20:46;99764.47;;;17.28;
46015;BME280;36844;51.898;-0.874;2022-12-24T07:23:11;99769.41;;;17.29;
46015;BME280;36844;51.898;-0.874;2022-12-24T07:25:36;99766.66;;;17.33;
46015;BME280;36844;51.898;-0.874;2022-12-24T07:28:01;99766.28;;;17.34;
46015;BME280;36844;51.898;-0.874;2022-12-24T07:30:26;99777.75;;;17.38;
46015;BME280;36844;51.898;-0.874;2022-12-24T07:32:52;99777.72;;;17.42;
46015;BME280;36844;51.898;-0.874;2022-12-24T07:35:17;99778.03;;;17.47;
46015;BME280;36844;51.898;-0.874;2022-12-24T07:37:42;99777.59;;;17.49;
46015;BME280;36844;51.898;-0.874;2022-12-24T07:40:07;99780.63;;;17.54;
46015;BME280;36844;51.898;-0.874;2022-12-24T07:42:33;99780.56;;;17.58;
46015;BME280;36844;51.898;-0.874;2022-12-24T07:44:58;99782.00;;;17.62;
46015;BME280;36844;51.898;-0.874;2022-12-24T07:47:24;99788.09;;;17.66;
46015;BME280;36844;51.898;-0.874;2022-12-24T07:49:49;99788.03;;;17.70;
46015;BME280;36844;51.898;-0.874;2022-12-24T07:52:14;99793.38;;;17.73;
46015;BME280;36844;51.898;-0.874;2022-12-24T07:54:39;99792.56;;;17.77;
46015;BME280;36844;51.898;-0.874;2022-12-24T07:57:05;99790.16;;;17.82;
46015;BME280;36844;51.898;-0.874;2022-12-24T07:59:30;99787.81;;;17.84;
46015;BME280;36844;51.898;-0.874;2022-12-24T08:01:55;99795.84;;;17.88;
46015;BME280;36844;51.898;-0.874;2022-12-24T08:04:21;99796.19;;;17.90;
46015;BME280;36844;51.898;-0.874;2022-12-24T08:06:46;99792.69;;;17.93;
46015;BME280;36844;51.898;-0.874;2022-12-24T08:09:11;99794.19;;;17.94;
46015;BME280;36844;51.898;-0.874;2022-12-24T08:11:38;99804.16;;;17.97;
46015;BME280;36844;51.898;-0.874;2022-12-24T08:14:03;99803.75;;;17.98;
46015;BME280;36844;51.898;-0.874;2022-12-24T08:16:28;99801.41;;;18.00;
46015;BME280;36844;51.898;-0.874;2022-12-24T08:18:53;99792.16;;;18.01;
46015;BME280;36844;51.898;-0.874;2022-12-24T08:21:19;99808.66;;;18.03;
46015;BME280;36844;51.898;-0.874;2022-12-24T08:23:45;99812.88;;;18.04;
46015;BME280;36844;51.898;-0.874;2022-12-24T08:26:11;99813.66;;;18.05;
46015;BME280;36844;51.898;-0.874;2022-12-24T08:28:36;99817.09;;;18.05;
46015;BME280;36844;51.898;-0.874;2022-12-24T08:31:02;99818.63;;;18.06;
46015;BME280;36844;51.898;-0.874;2022-12-24T08:33:27;99825.53;;;18.07;
46015;BME280;36844;51.898;-0.874;2022-12-24T08:35:53;99826.28;;;18.08;
46015;BME280;36844;51.898;-0.874;2022-12-24T08:38:18;99833.22;;;18.09;
46015;BME280;36844;51.898;-0.874;2022-12-24T08:40:44;99835.16;;;18.08;
46015;BME280;36844;51.898;-0.874;2022-12-24T08:43:12;99835.91;;;18.09;
46015;BME280;36844;51.898;-0.874;2022-12-24T08:45:38;99832.84;;;18.07;
46015;BME280;36844;51.898;-0.874;2022-12-24T08:48:03;99835.91;;;18.09;
46015;BME280;36844;51.898;-0.874;2022-12-24T08:52:54;99827.84;;;18.09;
46015;BME280;36844;51.898;-0.874;2022-12-24T08:55:19;99828.16;;;18.11;
46015;BME280;36844;51.898;-0.874;2022-12-24T08:57:44;99832.03;;;18.10;
46015;BME280;36844;51.898;-0.874;2022-12-24T09:00:10;99829.69;;;18.12;
46015;BME280;36844;51.898;-0.874;2022-12-24T09:02:36;99828.16;;;18.11;
46015;BME280;36844;51.898;-0.874;2022-12-24T09:05:01;99818.16;;;18.11;
46015;BME280;36844;51.898;-0.874;2022-12-24T09:07:26;99820.44;;;18.13;
46015;BME280;36844;51.898;-0.874;2022-12-24T09:09:51;99821.63;;;18.12;
46015;BME280;36844;51.898;-0.874;2022-12-24T09:12:17;99821.94;;;18.14;
46015;BME280;36844;51.898;-0.874;2022-12-24T09:14:42;99821.94;;;18.14;
46015;BME280;36844;51.898;-0.874;2022-12-24T09:17:07;99832.72;;;18.14;
46015;BME280;36844;51.898;-0.874;2022-12-24T09:19:32;99834.25;;;18.15;
46015;BME280;36844;51.898;-0.874;2022-12-24T09:21:58;99834.25;;;18.15;
46015;BME280;36844;51.898;-0.874;2022-12-24T09:24:23;99835.78;;;18.16;
46015;BME280;36844;51.898;-0.874;2022-12-24T09:26:48;99835.78;;;18.16;
46015;BME280;36844;51.898;-0.874;2022-12-24T09:29:13;99842.69;;;18.17;
46015;BME280;36844;51.898;-0.874;2022-12-24T09:31:39;99848.06;;;18.17;
46015;BME280;36844;51.898;-0.874;2022-12-24T09:34:04;99846.13;;;18.17;
46015;BME280;36844;51.898;-0.874;2022-12-24T09:36:29;99853.06;;;18.18;
46015;BME280;36844;51.898;-0.874;2022-12-24T09:38:54;99861.91;;;18.19;
46015;BME280;36844;51.898;-0.874;2022-12-24T09:43:50;99867.63;;;18.21;
46015;BME280;36844;51.898;-0.874;2022-12-24T09:48:46;99871.84;;;18.22;
46015;BME280;36844;51.898;-0.874;2022-12-24T09:51:27;99862.63;;;18.23;
46015;BME280;36844;51.898;-0.874;2022-12-24T09:53:54;99867.22;;;18.22;
46015;BME280;36844;51.898;-0.874;2022-12-24T09:56:21;99862.63;;;18.23;
46015;BME280;36844;51.898;-0.874;2022-12-24T09:59:01;99858.75;;;18.24;
46015;BME280;36844;51.898;-0.874;2022-12-24T10:01:31;99860.69;;;18.23;
46015;BME280;36844;51.898;-0.874;2022-12-24T10:03:57;99857.22;;;18.23;
46015;BME280;36844;51.898;-0.874;2022-12-24T10:06:26;99858.75;;;18.24;
46015;BME280;36844;51.898;-0.874;2022-12-24T10:11:42;99869.94;;;18.22;
46015;BME280;36844;51.898;-0.874;2022-12-24T10:19:20;99866.13;;;18.20;
46015;BME280;36844;51.898;-0.874;2022-12-24T10:24:25;99872.69;;;18.19;
46015;BME280;36844;51.898;-0.874;2022-12-24T10:29:34;99873.53;;;18.16;
46015;BME280;36844;51.898;-0.874;2022-12-24T10:34:32;99854.28;;;18.14;
46015;BME280;36844;51.898;-0.874;2022-12-24T10:36:59;99858.19;;;18.13;
46015;BME280;36844;51.898;-0.874;2022-12-24T10:39:26;99860.09;;;18.12;
46015;BME280;36844;51.898;-0.874;2022-12-24T10:41:52;99855.88;;;18.11;
46015;BME280;36844;51.898;-0.874;2022-12-24T10:44:20;99853.59;;;18.10;
46015;BME280;36844;51.898;-0.874;2022-12-24T10:46:46;99858.97;;;18.10;
46015;BME280;36844;51.898;-0.874;2022-12-24T10:49:33;99859.41;;;18.08;
46015;BME280;36844;51.898;-0.874;2022-12-24T10:55:09;99869.06;;;18.06;
46015;BME280;36844;51.898;-0.874;2022-12-24T10:57:37;99881.00;;;18.05;
46015;BME280;36844;51.898;-0.874;2022-12-24T11:00:03;99868.69;;;18.04;
46015;BME280;36844;51.898;-0.874;2022-12-24T11:02:34;99870.63;;;18.03;
46015;BME280;36844;51.898;-0.874;2022-12-24T11:05:00;99874.09;;;18.04;
46015;BME280;36844;51.898;-0.874;2022-12-24T11:07:26;99872.22;;;18.01;
46015;BME280;36844;51.898;-0.874;2022-12-24T11:10:03;99880.31;;;18.01;
46015;BME280;36844;51.898;-0.874;2022-12-24T11:12:30;99879.53;;;18.00;
46015;BME280;36844;51.898;-0.874;2022-12-24T11:15:00;99873.78;;;17.98;
46015;BME280;36844;51.898;-0.874;2022-12-24T11:17:26;99871.50;;;17.97;
46015;BME280;36844;51.898;-0.874;2022-12-24T11:19:51;99880.00;;;17.95;
46015;BME280;36844;51.898;-0.874;2022-12-24T11:22:18;99877.69;;;17.94;
46015;BME280;36844;51.898;-0.874;2022-12-24T11:24:43;99870.44;;;17.91;
46015;BME280;36844;51.898;-0.874;2022-12-24T11:32:36;99882.41;;;17.90;
46015;BME280;36844;51.898;-0.874;2022-12-24T11:35:04;99877.41;;;17.88;
46015;BME280;36844;51.898;-0.874;2022-12-24T11:37:29;99873.97;;;17.88;
46015;BME280;36844;51.898;-0.874;2022-12-24T11:39:58;99873.97;;;17.88;
46015;BME280;36844;51.898;-0.874;2022-12-24T11:42:25;99878.59;;;17.87;
46015;BME280;36844;51.898;-0.874;2022-12-24T11:44:52;99878.59;;;17.87;
46015;BME280;36844;51.898;-0.874;2022-12-24T11:47:26;99879.34;;;17.88;
46015;BME280;36844;51.898;-0.874;2022-12-24T11:49:58;99877.41;;;17.88;
46015;BME280;36844;51.898;-0.874;2022-12-24T11:52:40;99880.84;;;17.89;
46015;BME280;36844;51.898;-0.874;2022-12-24T11:55:16;99877.00;;;17.90;
46015;BME280;36844;51.898;-0.874;2022-12-24T11:57:48;99880.06;;;17.92;
46015;BME280;36844;51.898;-0.874;2022-12-24T12:00:14;99874.69;;;17.92;
46015;BME280;36844;51.898;-0.874;2022-12-24T12:02:40;99879.22;;;17.95;
46015;BME280;36844;51.898;-0.874;2022-12-24T12:05:08;99876.13;;;17.96;
46015;BME280;36844;51.898;-0.874;2022-12-24T12:07:35;99877.25;;;17.99;
46015;BME280;36844;51.898;-0.874;2022-12-24T12:10:05;99876.06;;;18.00;
46015;BME280;36844;51.898;-0.874;2022-12-24T12:12:35;99880.63;;;18.03;
46015;BME280;36844;51.898;-0.874;2022-12-24T12:20:03;99877.44;;;18.11;
46015;BME280;36844;51.898;-0.874;2022-12-24T12:25:21;99885.47;;;18.15;
46015;BME280;36844;51.898;-0.874;2022-12-24T12:27:48;99881.94;;;18.18;
46015;BME280;36844;51.898;-0.874;2022-12-24T12:30:17;99879.63;;;18.20;
46015;BME280;36844;51.898;-0.874;2022-12-24T12:33:09;99867.22;;;18.22;
46015;BME280;36844;51.898;-0.874;2022-12-24T12:37:59;99871.78;;;18.25;
46015;BME280;36844;51.898;-0.874;2022-12-24T12:45:52;99871.34;;;18.30;
46015;BME280;36844;51.898;-0.874;2022-12-24T12:53:39;99860.88;;;18.32;
46015;BME280;36844;51.898;-0.874;2022-12-24T12:56:21;99862.44;;;18.33;
46015;BME280;36844;51.898;-0.874;2022-12-24T13:01:20;99853.94;;;18.35;
46015;BME280;36844;51.898;-0.874;2022-12-24T13:08:55;99856.66;;;18.35;
46015;BME280;36844;51.898;-0.874;2022-12-24T13:19:00;99850.81;;;18.36;
46015;BME280;36844;51.898;-0.874;2022-12-24T13:21:27;99850.03;;;18.36;
46015;BME280;36844;51.898;-0.874;2022-12-24T13:26:37;99861.28;;;18.34;
46015;BME280;36844;51.898;-0.874;2022-12-24T13:32:03;99863.97;;;18.34;
46015;BME280;36844;51.898;-0.874;2022-12-24T13:34:39;99855.88;;;18.34;
46015;BME280;36844;51.898;-0.874;2022-12-24T13:37:21;99859.72;;;18.33;
46015;BME280;36844;51.898;-0.874;2022-12-24T13:40:32;99861.66;;;18.33;
46015;BME280;36844;51.898;-0.874;2022-12-24T13:50:48;99867.88;;;18.30;
46015;BME280;36844;51.898;-0.874;2022-12-24T13:56:39;99847.91;;;18.27;
46015;BME280;36844;51.898;-0.874;2022-12-24T13:58:46;99842.91;;;18.26;
46015;BME280;36844;51.898;-0.874;2022-12-24T14:01:16;99856.38;;;18.26;
46015;BME280;36844;51.898;-0.874;2022-12-24T14:06:08;99841.81;;;18.23;
46015;BME280;36844;51.898;-0.874;2022-12-24T14:08:37;99846.44;;;18.23;
46015;BME280;36844;51.898;-0.874;2022-12-24T14:16:03;99834.56;;;18.20;
46015;BME280;36844;51.898;-0.874;2022-12-24T14:18:29;99829.56;;;18.19;
46015;BME280;36844;51.898;-0.874;2022-12-24T14:20:56;99825.34;;;18.18;
46015;BME280;36844;51.898;-0.874;2022-12-24T14:26:08;99827.25;;;18.17;
46015;BME280;36844;51.898;-0.874;2022-12-24T14:28:35;99814.22;;;18.16;
46015;BME280;36844;51.898;-0.874;2022-12-24T14:31:03;99809.22;;;18.14;
46015;BME280;36844;51.898;-0.874;2022-12-24T14:33:29;99801.59;;;18.13;
46015;BME280;36844;51.898;-0.874;2022-12-24T14:35:55;99808.91;;;18.12;
46015;BME280;36844;51.898;-0.874;2022-12-24T14:38:21;99818.50;;;18.13;
46015;BME280;36844;51.898;-0.874;2022-12-24T14:46:13;99800.88;;;18.09;
46015;BME280;36844;51.898;-0.874;2022-12-24T14:48:46;99789.72;;;18.07;
46015;BME280;36844;51.898;-0.874;2022-12-24T14:56:14;99787.44;;;18.05;
46015;BME280;36844;51.898;-0.874;2022-12-24T14:58:39;99780.53;;;18.04;
46015;BME280;36844;51.898;-0.874;2022-12-24T15:01:23;99780.53;;;18.04;
46015;BME280;36844;51.898;-0.874;2022-12-24T15:03:58;99775.56;;;18.03;
46015;BME280;36844;51.898;-0.874;2022-12-24T15:06:23;99774.81;;;18.02;
46015;BME280;36844;51.898;-0.874;2022-12-24T15:08:49;99768.66;;;18.02;
46015;BME280;36844;51.898;-0.874;2022-12-24T15:11:18;99774.03;;;18.02;
46015;BME280;36844;51.898;-0.874;2022-12-24T15:13:45;99769.84;;;18.01;
46015;BME280;36844;51.898;-0.874;2022-12-24T15:16:12;99772.13;;;18.02;
46015;BME280;36844;51.898;-0.874;2022-12-24T15:18:40;99767.16;;;18.01;
46015;BME280;36844;51.898;-0.874;2022-12-24T15:21:12;99769.84;;;18.01;
46015;BME280;36844;51.898;-0.874;2022-12-24T15:23:43;99772.53;;;18.01;
46015;BME280;36844;51.898;-0.874;2022-12-24T15:28:38;99795.25;;;18.00;
46015;BME280;36844;51.898;-0.874;2022-12-24T15:31:05;99797.94;;;18.00;
46015;BME280;36844;51.898;-0.874;2022-12-24T15:33:35;99789.84;;;18.00;
46015;BME280;36844;51.898;-0.874;2022-12-24T15:36:01;99785.66;;;17.99;
46015;BME280;36844;51.898;-0.874;2022-12-24T15:38:36;99791.03;;;17.99;
46015;BME280;36844;51.898;-0.874;2022-12-24T15:41:04;99784.13;;;17.98;
46015;BME280;36844;51.898;-0.874;2022-12-24T15:43:30;99782.97;;;17.99;
46015;BME280;36844;51.898;-0.874;2022-12-24T15:45:56;99770.66;;;17.98;
46015;BME280;36844;51.898;-0.874;2022-12-24T15:48:23;99759.88;;;17.98;
46015;BME280;36844;51.898;-0.874;2022-12-24T15:50:52;99756.00;;;17.99;